CheckWX is a tool to help pilots better visualize weather data.  It is not intended as a substitute for an official pre-flight weather briefing.

11:36:17 UTC

FWCL METAR
Chileka International Airport
Blantyre, Malawi
Current

2 hours ago

FWCL 141000Z 15003KT 9999 BKN030 26/18 Q1019 NOSIG
Observed
Oct-14 @ 10:00 UTC
Wind
  • 150° at 3 KTS
Visibility
10,000+ meters
Flight Rules
MVFR
Cloud Levels
  • Broken at 3,000' AGL
Temperature
26°C / 79°F
Dewpoint
18°C / 64°F
Humidity
61%
Altimeter
30.09" Hg
Pressure
1018.92 hPa
Previous

5 hours ago

FWCL 140700Z 05007KT 9999 BKN025 26/18 Q1021 NOSIG
Observed
Oct-14 @ 07:00 UTC
Wind
  • 050° at 7 KTS
Visibility
10,000+ meters
Flight Rules
MVFR
Cloud Levels
  • Broken at 2,500' AGL
Temperature
26°C / 79°F
Dewpoint
18°C / 64°F
Humidity
61%
Altimeter
30.15" Hg
Pressure
1020.92 hPa
Previous

6 hours ago

FWCL 140600Z 01012KT 9999 SCT020 BKN070 25/18 Q1021 NOSIG
Observed
Oct-14 @ 06:00 UTC
Wind
  • 010° at 12 KTS
Visibility
10,000+ meters
Flight Rules
VFR
Cloud Levels
  • Scattered at 2,000' AGL
  • Broken at 7,000' AGL
Temperature
25°C / 77°F
Dewpoint
18°C / 64°F
Humidity
65%
Altimeter
30.15" Hg
Pressure
1020.92 hPa